createdAt,value
2023-05-02T00:02:21.945Z,9.40
2023-05-02T00:04:49.299Z,9.30
2023-05-02T00:07:16.700Z,9.40
2023-05-02T00:09:45.223Z,9.30
2023-05-02T00:12:12.588Z,9.30
2023-05-02T00:14:39.994Z,9.30
2023-05-02T00:17:07.399Z,9.20
2023-05-02T00:19:40.242Z,9.20
2023-05-02T00:22:07.530Z,9.20
2023-05-02T00:24:34.794Z,9.20
2023-05-02T00:27:02.218Z,9.20
2023-05-02T00:29:29.533Z,9.10
2023-05-02T00:31:58.121Z,9.10
2023-05-02T00:34:30.937Z,9.10
2023-05-02T00:36:58.534Z,9.10
2023-05-02T00:39:26.071Z,9.10
2023-05-02T00:42:00.332Z,9.10
2023-05-02T00:44:28.291Z,9.10
2023-05-02T00:46:57.187Z,9.00
2023-05-02T00:49:24.953Z,9.00
2023-05-02T00:51:53.680Z,9.00
2023-05-02T00:54:21.094Z,8.90
2023-05-02T00:56:48.788Z,8.90
2023-05-02T00:59:17.027Z,8.90
2023-05-02T01:01:56.408Z,8.90
2023-05-02T01:04:41.833Z,9.00
2023-05-02T01:07:41.099Z,9.00
2023-05-02T01:10:08.818Z,8.90
2023-05-02T01:12:52.631Z,8.90
2023-05-02T01:15:22.809Z,8.90
2023-05-02T01:17:52.464Z,8.90
2023-05-02T01:20:24.187Z,8.90
2023-05-02T01:22:52.436Z,8.90
2023-05-02T01:25:28.290Z,8.90
2023-05-02T01:28:18.247Z,8.90
2023-05-02T01:30:47.308Z,8.90
2023-05-02T01:33:17.791Z,8.90
2023-05-02T01:35:47.222Z,8.80
2023-05-02T01:38:16.823Z,8.80
2023-05-02T01:40:47.151Z,8.90
2023-05-02T01:43:15.927Z,8.80
2023-05-02T01:45:46.047Z,8.80
2023-05-02T01:48:15.873Z,8.80
2023-05-02T01:50:45.882Z,8.80
2023-05-02T01:53:14.849Z,8.80
2023-05-02T01:55:45.484Z,8.80
2023-05-02T01:58:15.437Z,8.70
2023-05-02T02:00:45.852Z,8.70
2023-05-02T02:03:15.310Z,8.70
2023-05-02T02:05:43.321Z,8.70
2023-05-02T02:08:10.761Z,8.60
2023-05-02T02:10:46.384Z,8.60
2023-05-02T02:13:37.136Z,8.60
2023-05-02T02:16:07.198Z,8.60
2023-05-02T02:18:39.097Z,8.60
2023-05-02T02:21:11.485Z,8.50
2023-05-02T02:23:43.555Z,8.50
2023-05-02T02:26:13.797Z,8.50
2023-05-02T02:28:42.958Z,8.40
2023-05-02T02:31:10.396Z,8.40
2023-05-02T02:33:38.453Z,8.40
2023-05-02T02:36:23.792Z,8.40
2023-05-02T02:39:18.445Z,8.40
2023-05-02T02:42:18.940Z,8.30
2023-05-02T02:45:19.893Z,8.40
2023-05-02T02:48:03.551Z,8.30
2023-05-02T02:50:36.901Z,8.30
2023-05-02T02:53:12.070Z,8.20
2023-05-02T02:55:42.488Z,8.10
2023-05-02T02:58:46.916Z,8.10
2023-05-02T03:01:22.124Z,8.10
2023-05-02T03:03:51.399Z,8.10
2023-05-02T03:06:20.565Z,8.10
2023-05-02T03:08:48.679Z,8.00
2023-05-02T03:11:19.748Z,8.00
2023-05-02T03:13:47.996Z,8.00
2023-05-02T03:16:39.502Z,8.00
2023-05-02T03:19:10.968Z,7.90
2023-05-02T03:21:39.130Z,7.90
2023-05-02T03:24:19.212Z,7.90
2023-05-02T03:26:48.408Z,7.90
2023-05-02T03:29:19.345Z,7.90
2023-05-02T03:31:46.965Z,7.90
2023-05-02T03:34:14.650Z,7.90
2023-05-02T03:36:43.824Z,7.90
2023-05-02T03:39:11.206Z,7.90
2023-05-02T03:41:39.089Z,7.90
2023-05-02T03:44:10.022Z,8.00
2023-05-02T03:46:37.953Z,8.00
2023-05-02T03:49:09.354Z,8.00
2023-05-02T03:51:37.238Z,8.00
2023-05-02T03:54:04.603Z,8.00
2023-05-02T03:56:33.582Z,8.10
2023-05-02T03:59:15.148Z,8.20
2023-05-02T04:01:43.283Z,8.20
2023-05-02T04:04:13.282Z,8.30
2023-05-02T04:06:47.632Z,8.30
2023-05-02T04:09:16.107Z,8.40
2023-05-02T04:11:50.477Z,8.50
2023-05-02T04:14:19.405Z,8.50
2023-05-02T04:16:51.307Z,8.60
2023-05-02T04:19:24.894Z,8.60
2023-05-02T04:21:52.275Z,8.70
2023-05-02T04:24:19.661Z,8.80
2023-05-02T04:26:49.051Z,8.80
2023-05-02T04:29:16.605Z,8.90
2023-05-02T04:31:44.921Z,8.90
2023-05-02T04:34:13.765Z,8.90
2023-05-02T04:36:48.402Z,9.00
2023-05-02T04:39:21.280Z,9.10
2023-05-02T04:42:00.937Z,9.10
2023-05-02T04:44:30.130Z,9.20
2023-05-02T04:46:58.880Z,9.20
2023-05-02T04:49:26.886Z,9.30
2023-05-02T04:51:54.342Z,9.40
2023-05-02T04:54:23.140Z,9.40
2023-05-02T04:56:50.453Z,9.50
2023-05-02T04:59:18.264Z,9.50
2023-05-02T05:01:46.134Z,9.40
2023-05-02T05:04:14.095Z,9.60
2023-05-02T05:06:41.885Z,9.50
2023-05-02T05:09:09.484Z,9.60
2023-05-02T05:11:38.818Z,9.60
2023-05-02T05:14:07.247Z,9.60
2023-05-02T05:16:38.209Z,9.70
2023-05-02T05:19:05.850Z,9.70
2023-05-02T05:21:33.636Z,9.80
2023-05-02T05:24:02.943Z,9.90
2023-05-02T05:26:30.495Z,9.90
2023-05-02T05:28:58.352Z,10.00
2023-05-02T05:31:28.945Z,10.20
2023-05-02T05:33:59.640Z,10.40
2023-05-02T05:36:28.058Z,10.30
2023-05-02T05:38:55.532Z,10.30
2023-05-02T05:41:23.365Z,10.30
2023-05-02T05:43:56.507Z,10.40
2023-05-02T05:46:25.835Z,10.50
2023-05-02T05:48:53.496Z,10.60
2023-05-02T05:51:21.470Z,10.70
2023-05-02T05:53:49.700Z,10.80
2023-05-02T05:56:18.392Z,10.90
2023-05-02T05:58:55.612Z,10.90
2023-05-02T06:01:23.209Z,10.90
2023-05-02T06:03:51.226Z,11.10
2023-05-02T06:06:19.639Z,11.10
2023-05-02T06:08:47.400Z,11.10
2023-05-02T06:11:15.234Z,11.20
2023-05-02T06:13:42.575Z,11.30
2023-05-02T06:16:10.927Z,11.30
2023-05-02T06:18:38.444Z,11.30
2023-05-02T06:21:07.771Z,11.40
2023-05-02T06:23:36.954Z,11.40
2023-05-02T06:26:05.425Z,11.40
2023-05-02T06:28:32.973Z,11.50
2023-05-02T06:31:06.063Z,11.60
2023-05-02T06:33:34.587Z,11.60
2023-05-02T06:36:02.423Z,11.50
2023-05-02T06:38:30.216Z,11.60
2023-05-02T06:40:57.612Z,11.50
2023-05-02T06:43:25.035Z,11.40
2023-05-02T06:45:56.516Z,11.40
2023-05-02T06:48:23.988Z,11.60
2023-05-02T06:50:54.459Z,11.60
2023-05-02T06:53:21.706Z,11.40
2023-05-02T06:55:49.738Z,11.30
2023-05-02T06:58:17.203Z,11.40
2023-05-02T07:00:44.858Z,11.30
2023-05-02T07:03:13.014Z,11.40
2023-05-02T07:05:41.040Z,11.30
2023-05-02T07:08:09.544Z,11.40
2023-05-02T07:10:38.875Z,11.40
2023-05-02T07:13:06.572Z,11.40
2023-05-02T07:15:34.489Z,11.50
2023-05-02T07:18:03.018Z,11.50
2023-05-02T07:20:30.965Z,11.50
2023-05-02T07:22:58.583Z,11.60
2023-05-02T07:25:26.372Z,11.70
2023-05-02T07:27:54.052Z,11.80
2023-05-02T07:30:21.834Z,11.80
2023-05-02T07:32:49.471Z,11.90
2023-05-02T07:35:17.346Z,12.00
2023-05-02T07:37:45.136Z,12.10
2023-05-02T07:40:12.972Z,12.20
2023-05-02T07:42:42.453Z,12.20
2023-05-02T07:45:10.738Z,12.10
2023-05-02T07:47:38.534Z,12.30
2023-05-02T07:50:07.301Z,12.20
2023-05-02T07:52:35.741Z,12.10
2023-05-02T07:55:03.302Z,12.20
2023-05-02T07:57:31.205Z,12.00
2023-05-02T07:59:59.558Z,11.80
2023-05-02T08:02:27.952Z,11.80
2023-05-02T08:04:55.983Z,11.70
2023-05-02T08:07:23.835Z,11.70
2023-05-02T08:09:51.702Z,11.70
2023-05-02T08:12:19.843Z,11.60
2023-05-02T08:14:47.789Z,11.60
2023-05-02T08:17:16.246Z,11.50
2023-05-02T08:19:44.615Z,11.70
2023-05-02T08:22:12.502Z,11.90
2023-05-02T08:24:40.232Z,12.10
2023-05-02T08:27:08.628Z,12.10
2023-05-02T08:29:36.897Z,12.20
2023-05-02T08:32:04.884Z,12.40
2023-05-02T08:34:34.152Z,12.50
2023-05-02T08:37:02.111Z,12.60
2023-05-02T08:39:34.217Z,12.90
2023-05-02T08:42:01.424Z,13.20
2023-05-02T08:44:29.088Z,13.60
2023-05-02T08:46:57.666Z,13.90
2023-05-02T08:49:27.746Z,13.90
2023-05-02T08:51:56.820Z,13.80
2023-05-02T08:54:25.923Z,14.10
2023-05-02T08:56:54.708Z,14.30
2023-05-02T08:59:22.150Z,14.40
2023-05-02T09:02:06.495Z,14.60
2023-05-02T09:04:38.816Z,14.40
2023-05-02T09:07:06.583Z,14.50
2023-05-02T09:09:34.776Z,14.50
2023-05-02T09:12:02.777Z,14.40
2023-05-02T09:14:30.325Z,14.80
2023-05-02T09:17:01.577Z,15.00
2023-05-02T09:19:29.084Z,14.90
2023-05-02T09:22:02.854Z,14.60
2023-05-02T09:24:30.258Z,14.60
2023-05-02T09:27:05.601Z,14.60
2023-05-02T09:29:38.253Z,14.70
2023-05-02T09:32:07.809Z,14.70
2023-05-02T09:34:37.576Z,15.00
2023-05-02T09:37:05.859Z,14.80
2023-05-02T09:39:33.300Z,14.80
2023-05-02T09:42:03.657Z,14.90
2023-05-02T09:44:38.935Z,14.80
2023-05-02T09:47:08.754Z,15.20
2023-05-02T09:49:47.561Z,15.70
2023-05-02T09:52:17.696Z,16.40
2023-05-02T09:54:47.088Z,16.60
2023-05-02T09:57:14.735Z,16.90
2023-05-02T09:59:42.490Z,17.20
2023-05-02T10:02:11.774Z,17.60
2023-05-02T10:04:40.602Z,17.50
2023-05-02T10:07:10.944Z,17.40
2023-05-02T10:09:43.722Z,17.40
2023-05-02T10:12:15.312Z,17.40
2023-05-02T10:14:50.990Z,17.40
2023-05-02T10:17:28.356Z,17.50
2023-05-02T10:20:06.495Z,17.80
2023-05-02T10:22:35.513Z,17.70
2023-05-02T10:25:04.110Z,17.60
2023-05-02T10:27:32.886Z,17.80
2023-05-02T10:30:01.176Z,18.00
2023-05-02T10:32:29.857Z,17.80
2023-05-02T10:34:57.945Z,18.20
2023-05-02T10:37:30.144Z,17.80
2023-05-02T10:39:58.879Z,18.10
2023-05-02T10:42:27.763Z,18.50
2023-05-02T10:44:55.116Z,18.70
2023-05-02T10:47:23.576Z,19.10
2023-05-02T10:50:01.468Z,19.40
2023-05-02T10:52:35.901Z,19.20
2023-05-02T10:55:16.481Z,19.20
2023-05-02T10:57:59.255Z,20.00
2023-05-02T11:00:30.284Z,20.20
2023-05-02T11:02:57.989Z,20.40
2023-05-02T11:05:26.908Z,20.20
2023-05-02T11:08:16.820Z,20.50
2023-05-02T11:10:46.556Z,20.30
2023-05-02T11:13:14.198Z,20.10
2023-05-02T11:15:41.536Z,20.10
2023-05-02T11:18:13.325Z,20.40
2023-05-02T11:20:45.061Z,20.80
2023-05-02T11:23:15.645Z,20.70
2023-05-02T11:25:45.646Z,21.30
2023-05-02T11:28:37.969Z,21.20
2023-05-02T11:31:06.892Z,21.70
2023-05-02T11:33:34.401Z,21.50
2023-05-02T11:36:01.968Z,21.70
2023-05-02T11:38:38.604Z,22.20
2023-05-02T11:41:06.031Z,22.50
2023-05-02T11:43:33.453Z,22.20
2023-05-02T11:46:02.312Z,21.80
2023-05-02T11:48:31.896Z,21.40
2023-05-02T11:51:05.566Z,21.30
2023-05-02T11:53:33.897Z,20.70
2023-05-02T11:56:04.236Z,19.90
2023-05-02T11:58:34.264Z,19.30
2023-05-02T12:01:28.470Z,18.80
2023-05-02T12:04:08.055Z,18.40
2023-05-02T12:06:35.933Z,18.30
2023-05-02T12:09:13.127Z,18.00
2023-05-02T12:11:41.149Z,17.60
2023-05-02T12:14:08.566Z,17.60
2023-05-02T12:16:36.188Z,17.70
2023-05-02T12:19:04.924Z,18.00
2023-05-02T12:21:33.520Z,18.40
2023-05-02T12:24:04.357Z,18.60
2023-05-02T12:26:33.222Z,18.90
2023-05-02T12:29:02.837Z,19.50
2023-05-02T12:31:32.307Z,20.50
2023-05-02T12:34:01.434Z,20.20
2023-05-02T12:36:29.605Z,20.10
2023-05-02T12:39:02.732Z,20.10
2023-05-02T12:41:35.477Z,19.60
2023-05-02T12:44:03.401Z,19.00
2023-05-02T12:46:32.353Z,18.10
2023-05-02T12:49:10.916Z,17.50
2023-05-02T12:51:42.328Z,16.90
2023-05-02T12:54:21.007Z,16.20
2023-05-02T12:56:49.072Z,15.80
2023-05-02T12:59:33.396Z,15.40
2023-05-02T13:02:00.763Z,15.00
2023-05-02T13:04:40.461Z,14.60
2023-05-02T13:07:08.212Z,14.40
2023-05-02T13:09:35.564Z,14.30
2023-05-02T13:12:04.140Z,14.40
2023-05-02T13:14:31.607Z,14.30
2023-05-02T13:16:59.436Z,14.30
2023-05-02T13:19:31.350Z,14.10
2023-05-02T13:21:59.085Z,14.00
2023-05-02T13:24:26.586Z,13.90
2023-05-02T13:26:53.847Z,13.80
2023-05-02T13:29:21.260Z,13.80
2023-05-02T13:31:48.530Z,13.70
2023-05-02T13:34:15.889Z,13.80
2023-05-02T13:36:46.675Z,13.80
2023-05-02T13:39:14.536Z,13.90
2023-05-02T13:41:43.060Z,14.10
2023-05-02T13:44:10.643Z,14.20
2023-05-02T13:46:38.697Z,14.30
2023-05-02T13:49:07.268Z,14.50
2023-05-02T13:51:34.649Z,14.90
2023-05-02T13:54:02.691Z,15.50
2023-05-02T13:56:29.928Z,15.90
2023-05-02T13:58:57.875Z,16.60
2023-05-02T14:01:29.975Z,17.40
2023-05-02T14:03:57.453Z,19.70
2023-05-02T14:06:25.544Z,22.90
2023-05-02T14:08:53.204Z,25.70
2023-05-02T14:11:22.245Z,27.00
2023-05-02T14:13:49.597Z,28.40
2023-05-02T14:16:17.093Z,30.00
2023-05-02T14:18:45.846Z,31.30
2023-05-02T14:21:13.109Z,32.00
2023-05-02T14:23:41.522Z,33.00
2023-05-02T14:26:09.238Z,33.90
2023-05-02T14:28:38.476Z,34.40
2023-05-02T14:31:07.537Z,34.00
2023-05-02T14:33:36.865Z,34.20
2023-05-02T14:36:08.197Z,34.10
2023-05-02T14:38:36.109Z,34.50
2023-05-02T14:41:04.374Z,34.80
2023-05-02T14:43:35.273Z,34.70
2023-05-02T14:46:03.093Z,34.40
2023-05-02T14:48:30.825Z,34.10
2023-05-02T14:51:03.957Z,33.70
2023-05-02T14:53:33.502Z,32.90
2023-05-02T14:56:03.911Z,33.70
2023-05-02T14:58:33.427Z,34.00
2023-05-02T15:01:03.118Z,35.00
2023-05-02T15:03:30.927Z,35.40
2023-05-02T15:05:59.285Z,35.80
2023-05-02T15:08:27.227Z,36.30
2023-05-02T15:10:59.329Z,35.70
2023-05-02T15:13:28.367Z,34.40
2023-05-02T15:15:58.257Z,34.30
2023-05-02T15:18:27.649Z,34.90
2023-05-02T15:20:55.754Z,34.70
2023-05-02T15:23:25.465Z,33.90
2023-05-02T15:25:53.155Z,33.90
2023-05-02T15:28:20.533Z,34.50
2023-05-02T15:30:56.897Z,33.70
2023-05-02T15:33:25.514Z,34.20
2023-05-02T15:35:58.508Z,34.80
2023-05-02T15:38:28.617Z,35.10
2023-05-02T15:41:00.158Z,35.20
2023-05-02T15:43:28.388Z,34.30
2023-05-02T15:45:58.294Z,34.50
2023-05-02T15:48:36.361Z,34.60
2023-05-02T15:51:06.616Z,35.20
2023-05-02T15:53:36.397Z,34.40
2023-05-02T15:56:04.722Z,34.20
2023-05-02T15:58:32.157Z,33.50
2023-05-02T16:01:00.315Z,34.20
2023-05-02T16:03:27.948Z,34.80
2023-05-02T16:05:57.133Z,35.40
2023-05-02T16:08:24.790Z,33.70
2023-05-02T16:10:53.650Z,34.00
2023-05-02T16:13:22.380Z,34.30
2023-05-02T16:15:52.657Z,34.30
2023-05-02T16:18:20.774Z,33.50
2023-05-02T16:20:50.560Z,33.30
2023-05-02T16:23:18.446Z,33.10
2023-05-02T16:25:46.905Z,33.60
2023-05-02T16:28:14.702Z,33.40
2023-05-02T16:30:43.816Z,32.80
2023-05-02T16:33:11.763Z,33.50
2023-05-02T16:35:39.358Z,34.00
2023-05-02T16:38:07.488Z,32.80
2023-05-02T16:40:35.409Z,32.40
2023-05-02T16:43:03.801Z,32.20
2023-05-02T16:45:32.054Z,32.20
2023-05-02T16:47:59.919Z,33.00
2023-05-02T16:50:30.006Z,32.60
2023-05-02T16:52:59.048Z,33.00
2023-05-02T16:55:26.642Z,32.30
2023-05-02T16:57:56.193Z,31.50
2023-05-02T17:00:24.730Z,30.80
2023-05-02T17:02:55.669Z,30.80
2023-05-02T17:05:23.914Z,30.70
2023-05-02T17:07:55.229Z,31.30
2023-05-02T17:10:24.097Z,30.90
2023-05-02T17:12:51.992Z,30.30
2023-05-02T17:15:20.075Z,29.70
2023-05-02T17:17:47.590Z,29.20
2023-05-02T17:20:17.461Z,27.00
2023-05-02T17:22:45.663Z,25.00
2023-05-02T17:25:14.300Z,23.60
2023-05-02T17:27:42.002Z,22.10
2023-05-02T17:30:14.597Z,20.70
2023-05-02T17:32:43.935Z,19.60
2023-05-02T17:35:14.284Z,18.80
2023-05-02T17:37:41.578Z,17.90
2023-05-02T17:40:09.439Z,17.40
2023-05-02T17:42:36.793Z,16.90
2023-05-02T17:45:05.286Z,16.40
2023-05-02T17:47:32.693Z,16.00
2023-05-02T17:50:02.805Z,15.70
2023-05-02T17:52:34.893Z,15.50
2023-05-02T17:55:02.304Z,15.20
2023-05-02T17:57:30.736Z,15.20
2023-05-02T17:59:59.875Z,15.20
2023-05-02T18:02:27.909Z,15.10
2023-05-02T18:04:55.387Z,15.20
2023-05-02T18:07:29.109Z,15.30
2023-05-02T18:09:57.584Z,15.50
2023-05-02T18:12:24.998Z,15.50
2023-05-02T18:14:53.586Z,15.40
2023-05-02T18:17:21.550Z,15.40
2023-05-02T18:19:50.706Z,15.40
2023-05-02T18:22:21.612Z,15.30
2023-05-02T18:24:53.598Z,15.30
2023-05-02T18:27:20.936Z,15.20
2023-05-02T18:29:48.485Z,15.10
2023-05-02T18:32:15.792Z,15.10
2023-05-02T18:34:43.245Z,15.00
2023-05-02T18:37:11.507Z,14.80
2023-05-02T18:39:38.936Z,14.70
2023-05-02T18:42:06.378Z,14.60
2023-05-02T18:44:33.805Z,14.50
2023-05-02T18:47:01.216Z,14.50
2023-05-02T18:49:28.651Z,14.40
2023-05-02T18:51:55.996Z,14.30
2023-05-02T18:54:24.421Z,14.20
2023-05-02T18:56:51.835Z,14.10
2023-05-02T18:59:19.225Z,14.00
2023-05-02T19:01:48.644Z,14.00
2023-05-02T19:04:16.095Z,13.90
2023-05-02T19:06:43.644Z,13.80
2023-05-02T19:09:13.770Z,13.70
2023-05-02T19:11:44.118Z,13.60
2023-05-02T19:14:12.050Z,13.50
2023-05-02T19:16:40.656Z,13.40
2023-05-02T19:19:08.642Z,13.30
2023-05-02T19:21:36.440Z,13.30
2023-05-02T19:24:04.456Z,13.20
2023-05-02T19:26:32.177Z,13.10
2023-05-02T19:28:59.438Z,13.00
2023-05-02T19:31:27.133Z,13.00
2023-05-02T19:33:55.092Z,12.90
2023-05-02T19:36:24.110Z,12.80
2023-05-02T19:38:53.919Z,12.80
2023-05-02T19:41:22.685Z,12.70
2023-05-02T19:43:51.454Z,12.70
2023-05-02T19:46:22.297Z,12.70
2023-05-02T19:48:51.485Z,12.60
2023-05-02T19:51:27.623Z,12.60
2023-05-02T19:53:55.176Z,12.50
2023-05-02T19:56:26.024Z,12.50
2023-05-02T19:58:54.171Z,12.50
2023-05-02T20:01:23.602Z,12.40
2023-05-02T20:03:51.264Z,12.40
2023-05-02T20:06:19.602Z,12.30
2023-05-02T20:08:49.729Z,12.30
2023-05-02T20:11:17.389Z,12.30
2023-05-02T20:13:46.092Z,12.20
2023-05-02T20:16:14.524Z,12.10
2023-05-02T20:18:45.173Z,12.10
2023-05-02T20:21:13.540Z,12.00
2023-05-02T20:23:43.975Z,12.00
2023-05-02T20:26:12.083Z,11.90
2023-05-02T20:28:40.542Z,11.90
2023-05-02T20:31:08.598Z,11.80
2023-05-02T20:33:44.651Z,11.80
2023-05-02T20:36:15.003Z,11.70
2023-05-02T20:38:43.103Z,11.70
2023-05-02T20:41:13.016Z,11.60
2023-05-02T20:43:46.224Z,11.60
2023-05-02T20:46:16.731Z,11.50
2023-05-02T20:48:45.460Z,11.40
2023-05-02T20:51:14.061Z,11.40
2023-05-02T20:53:44.950Z,11.30
2023-05-02T20:56:12.899Z,11.30
2023-05-02T20:58:40.341Z,11.30
2023-05-02T21:01:07.733Z,11.30
2023-05-02T21:03:39.498Z,11.20
2023-05-02T21:06:10.481Z,11.20
2023-05-02T21:08:38.120Z,11.10
2023-05-02T21:11:17.442Z,11.10
2023-05-02T21:13:44.863Z,11.10
2023-05-02T21:16:18.538Z,11.10
2023-05-02T21:18:50.274Z,11.00
2023-05-02T21:21:18.915Z,10.90
2023-05-02T21:23:46.899Z,10.90
2023-05-02T21:26:14.454Z,10.90
2023-05-02T21:28:42.457Z,10.90
2023-05-02T21:31:11.175Z,10.80
2023-05-02T21:33:43.998Z,10.80
2023-05-02T21:36:11.516Z,10.70
2023-05-02T21:38:39.407Z,10.70
2023-05-02T21:41:12.039Z,10.70
2023-05-02T21:43:41.041Z,10.60
2023-05-02T21:46:11.909Z,10.60
2023-05-02T21:48:40.391Z,10.60
2023-05-02T21:51:22.922Z,10.50
2023-05-02T21:53:52.699Z,10.50
2023-05-02T21:56:20.952Z,10.50
2023-05-02T21:58:51.653Z,10.40
2023-05-02T22:01:19.345Z,10.40
2023-05-02T22:03:49.766Z,10.30
2023-05-02T22:06:17.750Z,10.30
2023-05-02T22:08:45.319Z,10.30
2023-05-02T22:11:13.183Z,10.20
2023-05-02T22:13:41.081Z,10.10
2023-05-02T22:16:09.937Z,10.10
2023-05-02T22:18:39.922Z,10.00
2023-05-02T22:21:08.336Z,9.90
2023-05-02T22:23:39.644Z,9.90
2023-05-02T22:26:11.837Z,9.80
2023-05-02T22:28:39.916Z,9.80
2023-05-02T22:31:09.036Z,9.80
2023-05-02T22:33:37.379Z,9.90
2023-05-02T22:36:05.507Z,10.00
2023-05-02T22:38:33.280Z,10.10
2023-05-02T22:41:01.858Z,10.20
2023-05-02T22:43:32.723Z,10.20
2023-05-02T22:46:00.286Z,10.30
2023-05-02T22:48:28.985Z,10.40
2023-05-02T22:50:57.281Z,10.30
2023-05-02T22:53:26.293Z,10.40
2023-05-02T22:55:54.851Z,10.40
2023-05-02T22:58:24.096Z,10.40
2023-05-02T23:00:53.685Z,10.40
2023-05-02T23:03:21.945Z,10.50
2023-05-02T23:05:49.607Z,10.50
2023-05-02T23:08:17.606Z,10.50
2023-05-02T23:10:45.475Z,10.60
2023-05-02T23:13:14.950Z,10.60
2023-05-02T23:15:42.275Z,10.70
2023-05-02T23:18:10.707Z,10.60
2023-05-02T23:20:38.103Z,10.50
2023-05-02T23:23:07.284Z,10.40
2023-05-02T23:25:36.739Z,10.30
2023-05-02T23:28:05.240Z,10.30
2023-05-02T23:30:33.757Z,10.20
2023-05-02T23:33:01.472Z,10.20
2023-05-02T23:35:29.005Z,10.10
2023-05-02T23:38:04.880Z,10.00
2023-05-02T23:40:33.258Z,9.90
2023-05-02T23:43:00.821Z,9.80
2023-05-02T23:45:28.067Z,9.80
2023-05-02T23:47:58.614Z,9.70
2023-05-02T23:50:26.342Z,9.50
2023-05-02T23:52:54.308Z,9.50
2023-05-02T23:55:24.416Z,9.40
2023-05-02T23:57:51.799Z,9.30
